sensor_id;sensor_type;location;lat;lon;timestamp;pressure;altitude;pressure_sealevel;temperature;humidity
58967;BME280;44744;51.894;5.080;2023-02-17T00:00:07;102059.06;;;9.83;89.35
58967;BME280;44744;51.894;5.080;2023-02-17T00:01:25;102054.47;;;9.83;89.38
58967;BME280;44744;51.894;5.080;2023-02-17T00:02:27;102052.38;;;9.82;89.34
58967;BME280;44744;51.894;5.080;2023-02-17T00:03:29;102055.58;;;9.82;89.34
58967;BME280;44744;51.894;5.080;2023-02-17T00:04:32;102056.27;;;9.82;89.35
58967;BME280;44744;51.894;5.080;2023-02-17T00:05:33;102058.73;;;9.82;89.41
58967;BME280;44744;51.894;5.080;2023-02-17T00:06:40;102058.77;;;9.82;89.38
58967;BME280;44744;51.894;5.080;2023-02-17T00:07:41;102065.98;;;9.82;89.36
58967;BME280;44744;51.894;5.080;2023-02-17T00:08:43;102068.61;;;9.83;89.43
58967;BME280;44744;51.894;5.080;2023-02-17T00:09:47;102073.02;;;9.83;89.39
58967;BME280;44744;51.894;5.080;2023-02-17T00:10:59;102067.36;;;9.84;89.39
58967;BME280;44744;51.894;5.080;2023-02-17T00:12:01;102064.86;;;9.84;89.28
58967;BME280;44744;51.894;5.080;2023-02-17T00:13:01;102062.17;;;9.85;89.35
58967;BME280;44744;51.894;5.080;2023-02-17T00:14:08;102060.41;;;9.85;89.25
58967;BME280;44744;51.894;5.080;2023-02-17T00:15:11;102057.39;;;9.86;89.26
58967;BME280;44744;51.894;5.080;2023-02-17T00:16:23;102053.55;;;9.85;89.31
58967;BME280;44744;51.894;5.080;2023-02-17T00:17:24;102050.20;;;9.84;89.29
58967;BME280;44744;51.894;5.080;2023-02-17T00:18:27;102050.20;;;9.84;89.23
58967;BME280;44744;51.894;5.080;2023-02-17T00:19:49;102050.52;;;9.85;89.21
58967;BME280;44744;51.894;5.080;2023-02-17T00:20:50;102043.82;;;9.85;89.18
58967;BME280;44744;51.894;5.080;2023-02-17T00:22:01;102038.89;;;9.84;89.20
58967;BME280;44744;51.894;5.080;2023-02-17T00:23:01;102034.48;;;9.85;89.19
58967;BME280;44744;51.894;5.080;2023-02-17T00:24:03;102031.61;;;9.86;89.17
58967;BME280;44744;51.894;5.080;2023-02-17T00:25:10;102026.51;;;9.85;89.13
58967;BME280;44744;51.894;5.080;2023-02-17T00:26:12;102027.59;;;9.84;89.08
58967;BME280;44744;51.894;5.080;2023-02-17T00:27:13;102027.05;;;9.84;89.09
58967;BME280;44744;51.894;5.080;2023-02-17T00:28:17;102029.02;;;9.83;89.11
58967;BME280;44744;51.894;5.080;2023-02-17T00:29:22;102026.39;;;9.83;89.11
58967;BME280;44744;51.894;5.080;2023-02-17T00:30:29;102029.02;;;9.83;89.08
58967;BME280;44744;51.894;5.080;2023-02-17T00:31:29;102030.80;;;9.83;88.97
58967;BME280;44744;51.894;5.080;2023-02-17T00:32:32;102032.40;;;9.83;89.03
58967;BME280;44744;51.894;5.080;2023-02-17T00:33:55;102032.73;;;9.84;89.01
58967;BME280;44744;51.894;5.080;2023-02-17T00:34:59;102032.02;;;9.84;89.01
58967;BME280;44744;51.894;5.080;2023-02-17T00:36:31;102035.05;;;9.83;88.99
58967;BME280;44744;51.894;5.080;2023-02-17T00:37:34;102038.79;;;9.82;88.99
58967;BME280;44744;51.894;5.080;2023-02-17T00:38:39;102033.85;;;9.82;89.07
58967;BME280;44744;51.894;5.080;2023-02-17T00:39:40;102033.52;;;9.82;88.99
58967;BME280;44744;51.894;5.080;2023-02-17T00:40:41;102032.10;;;9.81;88.97
58967;BME280;44744;51.894;5.080;2023-02-17T00:41:42;102035.44;;;9.82;88.99
58967;BME280;44744;51.894;5.080;2023-02-17T00:42:44;102036.51;;;9.82;88.99
58967;BME280;44744;51.894;5.080;2023-02-17T00:43:45;102038.13;;;9.81;88.93
58967;BME280;44744;51.894;5.080;2023-02-17T00:44:46;102037.60;;;9.81;88.89
58967;BME280;44744;51.894;5.080;2023-02-17T00:45:48;102034.80;;;9.80;88.89
58967;BME280;44744;51.894;5.080;2023-02-17T00:46:50;102039.13;;;9.78;89.02
58967;BME280;44744;51.894;5.080;2023-02-17T00:47:52;102035.09;;;9.76;88.96
58967;BME280;44744;51.894;5.080;2023-02-17T00:49:15;102035.44;;;9.77;88.94
58967;BME280;44744;51.894;5.080;2023-02-17T00:50:21;102035.80;;;9.76;89.01
58967;BME280;44744;51.894;5.080;2023-02-17T00:51:22;102035.04;;;9.73;89.01
58967;BME280;44744;51.894;5.080;2023-02-17T00:52:32;102037.19;;;9.72;89.00
58967;BME280;44744;51.894;5.080;2023-02-17T00:53:33;102037.70;;;9.72;89.04
58967;BME280;44744;51.894;5.080;2023-02-17T00:54:39;102032.05;;;9.72;89.07
58967;BME280;44744;51.894;5.080;2023-02-17T00:55:57;102029.23;;;9.71;89.07
58967;BME280;44744;51.894;5.080;2023-02-17T00:57:07;102032.11;;;9.70;89.12
58967;BME280;44744;51.894;5.080;2023-02-17T00:58:07;102030.36;;;9.69;89.06
58967;BME280;44744;51.894;5.080;2023-02-17T00:59:09;102029.30;;;9.70;89.13
58967;BME280;44744;51.894;5.080;2023-02-17T01:00:10;102030.19;;;9.69;89.19
58967;BME280;44744;51.894;5.080;2023-02-17T01:01:30;102029.20;;;9.67;89.13
58967;BME280;44744;51.894;5.080;2023-02-17T01:02:34;102026.23;;;9.67;89.23
58967;BME280;44744;51.894;5.080;2023-02-17T01:03:35;102026.38;;;9.67;89.19
58967;BME280;44744;51.894;5.080;2023-02-17T01:04:37;102025.15;;;9.67;89.21
58967;BME280;44744;51.894;5.080;2023-02-17T01:05:55;102026.92;;;9.67;89.12
58967;BME280;44744;51.894;5.080;2023-02-17T01:06:57;102026.91;;;9.67;89.21
58967;BME280;44744;51.894;5.080;2023-02-17T01:07:59;102028.17;;;9.66;89.15
58967;BME280;44744;51.894;5.080;2023-02-17T01:09:02;102028.52;;;9.66;89.17
58967;BME280;44744;51.894;5.080;2023-02-17T01:10:04;102022.31;;;9.67;89.27
58967;BME280;44744;51.894;5.080;2023-02-17T01:11:05;102025.34;;;9.66;89.25
58967;BME280;44744;51.894;5.080;2023-02-17T01:12:45;102023.94;;;9.66;89.16
58967;BME280;44744;51.894;5.080;2023-02-17T01:13:45;102024.48;;;9.66;89.15
58967;BME280;44744;51.894;5.080;2023-02-17T01:14:48;102025.05;;;9.65;89.21
58967;BME280;44744;51.894;5.080;2023-02-17T01:15:53;102027.85;;;9.65;89.31
58967;BME280;44744;51.894;5.080;2023-02-17T01:16:55;102029.28;;;9.65;89.25
58967;BME280;44744;51.894;5.080;2023-02-17T01:17:55;102029.08;;;9.66;89.36
58967;BME280;44744;51.894;5.080;2023-02-17T01:18:58;102029.96;;;9.65;89.34
58967;BME280;44744;51.894;5.080;2023-02-17T01:20:00;102030.50;;;9.65;89.39
58967;BME280;44744;51.894;5.080;2023-02-17T01:21:19;102031.94;;;9.64;89.29
58967;BME280;44744;51.894;5.080;2023-02-17T01:22:20;102027.71;;;9.64;89.36
58967;BME280;44744;51.894;5.080;2023-02-17T01:23:21;102022.25;;;9.64;89.42
58967;BME280;44744;51.894;5.080;2023-02-17T01:24:22;102021.56;;;9.63;89.40
58967;BME280;44744;51.894;5.080;2023-02-17T01:25:25;102021.40;;;9.63;89.37
58967;BME280;44744;51.894;5.080;2023-02-17T01:26:32;102020.20;;;9.62;89.40
58967;BME280;44744;51.894;5.080;2023-02-17T01:27:33;102018.08;;;9.62;89.38
58967;BME280;44744;51.894;5.080;2023-02-17T01:28:36;102024.95;;;9.62;89.40
58967;BME280;44744;51.894;5.080;2023-02-17T01:29:46;102023.23;;;9.61;89.41
58967;BME280;44744;51.894;5.080;2023-02-17T01:30:48;102026.41;;;9.61;89.51
58967;BME280;44744;51.894;5.080;2023-02-17T01:31:49;102022.52;;;9.61;89.51
58967;BME280;44744;51.894;5.080;2023-02-17T01:32:53;102022.14;;;9.62;89.56
58967;BME280;44744;51.894;5.080;2023-02-17T01:33:56;102024.45;;;9.61;89.44
58967;BME280;44744;51.894;5.080;2023-02-17T01:34:57;102022.87;;;9.61;89.46
58967;BME280;44744;51.894;5.080;2023-02-17T01:36:39;102033.52;;;9.59;89.49
58967;BME280;44744;51.894;5.080;2023-02-17T01:37:42;102035.15;;;9.58;89.47
58967;BME280;44744;51.894;5.080;2023-02-17T01:38:43;102038.89;;;9.57;89.50
58967;BME280;44744;51.894;5.080;2023-02-17T01:39:46;102036.90;;;9.59;89.55
58967;BME280;44744;51.894;5.080;2023-02-17T01:40:47;102033.91;;;9.58;89.40
58967;BME280;44744;51.894;5.080;2023-02-17T01:41:48;102036.14;;;9.54;89.47
58967;BME280;44744;51.894;5.080;2023-02-17T01:42:56;102034.55;;;9.54;89.51
58967;BME280;44744;51.894;5.080;2023-02-17T01:44:33;102035.80;;;9.54;89.42
58967;BME280;44744;51.894;5.080;2023-02-17T01:46:01;102033.36;;;9.53;89.38
58967;BME280;44744;51.894;5.080;2023-02-17T01:47:05;102034.85;;;9.50;89.38
58967;BME280;44744;51.894;5.080;2023-02-17T01:48:11;102032.58;;;9.50;89.35
58967;BME280;44744;51.894;5.080;2023-02-17T01:49:38;102031.52;;;9.50;89.31
58967;BME280;44744;51.894;5.080;2023-02-17T01:50:57;102027.86;;;9.48;89.42
58967;BME280;44744;51.894;5.080;2023-02-17T01:52:18;102022.94;;;9.48;89.37
58967;BME280;44744;51.894;5.080;2023-02-17T01:53:23;102017.66;;;9.47;89.39
58967;BME280;44744;51.894;5.080;2023-02-17T01:54:33;102016.23;;;9.47;89.48
58967;BME280;44744;51.894;5.080;2023-02-17T01:55:37;102015.89;;;9.47;89.36
58967;BME280;44744;51.894;5.080;2023-02-17T01:56:48;102013.93;;;9.48;89.38
58967;BME280;44744;51.894;5.080;2023-02-17T01:57:53;102016.79;;;9.47;89.40
58967;BME280;44744;51.894;5.080;2023-02-17T01:59:03;102022.64;;;9.46;89.41
58967;BME280;44744;51.894;5.080;2023-02-17T02:00:13;102024.79;;;9.45;89.44
58967;BME280;44744;51.894;5.080;2023-02-17T02:01:19;102028.16;;;9.45;89.45
58967;BME280;44744;51.894;5.080;2023-02-17T02:02:21;102027.16;;;9.43;89.39
58967;BME280;44744;51.894;5.080;2023-02-17T02:03:22;102026.28;;;9.43;89.37
58967;BME280;44744;51.894;5.080;2023-02-17T02:04:26;102019.91;;;9.43;89.45
58967;BME280;44744;51.894;5.080;2023-02-17T02:05:36;102020.44;;;9.43;89.42
58967;BME280;44744;51.894;5.080;2023-02-17T02:06:39;102017.41;;;9.44;89.43
58967;BME280;44744;51.894;5.080;2023-02-17T02:07:44;102017.04;;;9.45;89.39
58967;BME280;44744;51.894;5.080;2023-02-17T02:09:02;102010.15;;;9.44;89.38
58967;BME280;44744;51.894;5.080;2023-02-17T02:10:18;102003.98;;;9.44;89.30
58967;BME280;44744;51.894;5.080;2023-02-17T02:11:23;101999.95;;;9.43;89.21
58967;BME280;44744;51.894;5.080;2023-02-17T02:12:32;102002.42;;;9.43;89.29
58967;BME280;44744;51.894;5.080;2023-02-17T02:13:33;102003.32;;;9.43;89.26
58967;BME280;44744;51.894;5.080;2023-02-17T02:14:35;102001.73;;;9.43;89.22
58967;BME280;44744;51.894;5.080;2023-02-17T02:15:51;101996.77;;;9.43;89.13
58967;BME280;44744;51.894;5.080;2023-02-17T02:18:40;101990.23;;;9.43;89.21
58967;BME280;44744;51.894;5.080;2023-02-17T02:25:33;101980.23;;;9.41;89.02
58967;BME280;44744;51.894;5.080;2023-02-17T02:28:36;101970.90;;;9.40;89.14
58967;BME280;44744;51.894;5.080;2023-02-17T02:32:16;101959.53;;;9.37;89.06
58967;BME280;44744;51.894;5.080;2023-02-17T02:33:31;101960.07;;;9.37;89.16
58967;BME280;44744;51.894;5.080;2023-02-17T02:34:54;101953.90;;;9.36;89.05
58967;BME280;44744;51.894;5.080;2023-02-17T02:36:42;101957.98;;;9.36;89.00
58967;BME280;44744;51.894;5.080;2023-02-17T02:38:10;101961.69;;;9.36;88.97
58967;BME280;44744;51.894;5.080;2023-02-17T02:39:46;101958.16;;;9.36;89.04
58967;BME280;44744;51.894;5.080;2023-02-17T02:41:12;101958.70;;;9.36;89.06
58967;BME280;44744;51.894;5.080;2023-02-17T02:42:18;101950.80;;;9.34;89.00
58967;BME280;44744;51.894;5.080;2023-02-17T02:43:22;101950.83;;;9.34;89.00
58967;BME280;44744;51.894;5.080;2023-02-17T02:44:26;101954.14;;;9.35;89.02
58967;BME280;44744;51.894;5.080;2023-02-17T02:45:29;101956.25;;;9.35;89.16
58967;BME280;44744;51.894;5.080;2023-02-17T02:46:29;101953.56;;;9.36;89.08
58967;BME280;44744;51.894;5.080;2023-02-17T02:47:51;101951.34;;;9.34;89.06
58967;BME280;44744;51.894;5.080;2023-02-17T02:48:51;101950.33;;;9.33;89.06
58967;BME280;44744;51.894;5.080;2023-02-17T02:49:54;101952.95;;;9.33;89.12
58967;BME280;44744;51.894;5.080;2023-02-17T02:51:20;101955.58;;;9.34;89.12
58967;BME280;44744;51.894;5.080;2023-02-17T02:54:38;101938.63;;;9.34;89.18
58967;BME280;44744;51.894;5.080;2023-02-17T02:56:12;101945.53;;;9.33;89.18
58967;BME280;44744;51.894;5.080;2023-02-17T02:58:42;101948.83;;;9.35;89.24
58967;BME280;44744;51.894;5.080;2023-02-17T03:00:03;101948.11;;;9.35;89.24
58967;BME280;44744;51.894;5.080;2023-02-17T03:01:13;101940.71;;;9.35;89.16
58967;BME280;44744;51.894;5.080;2023-02-17T03:06:43;101944.45;;;9.34;89.22
58967;BME280;44744;51.894;5.080;2023-02-17T03:08:05;101942.17;;;9.34;89.31
58967;BME280;44744;51.894;5.080;2023-02-17T03:09:12;101940.05;;;9.33;89.27
58967;BME280;44744;51.894;5.080;2023-02-17T03:10:16;101941.81;;;9.33;89.22
58967;BME280;44744;51.894;5.080;2023-02-17T03:11:22;101942.84;;;9.35;89.23
58967;BME280;44744;51.894;5.080;2023-02-17T03:12:22;101937.88;;;9.35;89.16
58967;BME280;44744;51.894;5.080;2023-02-17T03:13:24;101939.63;;;9.36;89.14
58967;BME280;44744;51.894;5.080;2023-02-17T03:14:26;101942.42;;;9.36;89.22
58967;BME280;44744;51.894;5.080;2023-02-17T03:15:32;101938.88;;;9.37;89.24
58967;BME280;44744;51.894;5.080;2023-02-17T03:16:34;101938.02;;;9.36;89.17
58967;BME280;44744;51.894;5.080;2023-02-17T03:17:37;101937.85;;;9.36;89.22
58967;BME280;44744;51.894;5.080;2023-02-17T03:18:38;101942.26;;;9.36;89.23
58967;BME280;44744;51.894;5.080;2023-02-17T03:19:41;101940.66;;;9.36;89.20
58967;BME280;44744;51.894;5.080;2023-02-17T03:20:52;101943.64;;;9.37;89.28
58967;BME280;44744;51.894;5.080;2023-02-17T03:22:03;101938.31;;;9.38;89.26
58967;BME280;44744;51.894;5.080;2023-02-17T03:23:06;101936.53;;;9.38;89.20
58967;BME280;44744;51.894;5.080;2023-02-17T03:24:07;101937.73;;;9.39;89.20
58967;BME280;44744;51.894;5.080;2023-02-17T03:25:09;101939.52;;;9.39;89.09
58967;BME280;44744;51.894;5.080;2023-02-17T03:26:11;101937.90;;;9.40;89.13
58967;BME280;44744;51.894;5.080;2023-02-17T03:27:12;101931.38;;;9.39;89.10
58967;BME280;44744;51.894;5.080;2023-02-17T03:28:15;101932.77;;;9.40;89.09
58967;BME280;44744;51.894;5.080;2023-02-17T03:29:52;101924.85;;;9.39;88.98
58967;BME280;44744;51.894;5.080;2023-02-17T03:30:57;101924.89;;;9.38;89.03
58967;BME280;44744;51.894;5.080;2023-02-17T03:31:59;101922.81;;;9.37;89.08
58967;BME280;44744;51.894;5.080;2023-02-17T03:33:01;101924.18;;;9.38;89.17
58967;BME280;44744;51.894;5.080;2023-02-17T03:34:02;101919.83;;;9.37;89.11
58967;BME280;44744;51.894;5.080;2023-02-17T03:35:04;101917.33;;;9.37;89.16
58967;BME280;44744;51.894;5.080;2023-02-17T03:36:06;101916.79;;;9.38;89.10
58967;BME280;44744;51.894;5.080;2023-02-17T03:37:07;101912.13;;;9.34;89.04
58967;BME280;44744;51.894;5.080;2023-02-17T03:38:09;101908.28;;;9.33;89.08
58967;BME280;44744;51.894;5.080;2023-02-17T03:39:11;101907.91;;;9.34;89.25
58967;BME280;44744;51.894;5.080;2023-02-17T03:40:19;101906.67;;;9.34;89.22
58967;BME280;44744;51.894;5.080;2023-02-17T03:41:22;101903.66;;;9.34;89.08
58967;BME280;44744;51.894;5.080;2023-02-17T03:42:24;101904.70;;;9.35;89.05
58967;BME280;44744;51.894;5.080;2023-02-17T03:43:25;101903.43;;;9.36;89.10
58967;BME280;44744;51.894;5.080;2023-02-17T03:44:26;101898.66;;;9.36;88.99
58967;BME280;44744;51.894;5.080;2023-02-17T03:45:28;101899.00;;;9.37;88.95
58967;BME280;44744;51.894;5.080;2023-02-17T03:46:28;101894.03;;;9.37;88.93
58967;BME280;44744;51.894;5.080;2023-02-17T03:47:29;101891.70;;;9.38;88.92
58967;BME280;44744;51.894;5.080;2023-02-17T03:48:30;101894.87;;;9.38;88.96
58967;BME280;44744;51.894;5.080;2023-02-17T03:49:30;101889.91;;;9.39;88.93
58967;BME280;44744;51.894;5.080;2023-02-17T03:50:31;101887.43;;;9.39;89.03
58967;BME280;44744;51.894;5.080;2023-02-17T03:51:32;101889.01;;;9.39;88.94
58967;BME280;44744;51.894;5.080;2023-02-17T03:52:32;101894.63;;;9.40;88.97
58967;BME280;44744;51.894;5.080;2023-02-17T03:53:50;101890.39;;;9.41;88.87
58967;BME280;44744;51.894;5.080;2023-02-17T03:54:56;101889.37;;;9.39;88.89
58967;BME280;44744;51.894;5.080;2023-02-17T03:56:00;101894.86;;;9.39;88.97
58967;BME280;44744;51.894;5.080;2023-02-17T03:57:03;101897.86;;;9.39;88.94
58967;BME280;44744;51.894;5.080;2023-02-17T03:58:04;101909.30;;;9.40;88.94
58967;BME280;44744;51.894;5.080;2023-02-17T03:59:05;101909.45;;;9.41;88.93
58967;BME280;44744;51.894;5.080;2023-02-17T04:00:11;101911.20;;;9.41;88.86
58967;BME280;44744;51.894;5.080;2023-02-17T04:01:14;101913.83;;;9.42;88.75
58967;BME280;44744;51.894;5.080;2023-02-17T04:02:15;101915.27;;;9.41;88.86
58967;BME280;44744;51.894;5.080;2023-02-17T04:03:20;101913.87;;;9.41;88.81
58967;BME280;44744;51.894;5.080;2023-02-17T04:04:26;101907.54;;;9.40;88.74
58967;BME280;44744;51.894;5.080;2023-02-17T04:05:30;101911.05;;;9.40;88.82
58967;BME280;44744;51.894;5.080;2023-02-17T04:06:35;101910.69;;;9.40;88.73
58967;BME280;44744;51.894;5.080;2023-02-17T04:07:46;101911.78;;;9.40;88.76
58967;BME280;44744;51.894;5.080;2023-02-17T04:08:52;101916.89;;;9.40;88.74
58967;BME280;44744;51.894;5.080;2023-02-17T04:09:52;101917.20;;;9.41;88.83
58967;BME280;44744;51.894;5.080;2023-02-17T04:10:57;101912.95;;;9.42;88.80
58967;BME280;44744;51.894;5.080;2023-02-17T04:11:59;101913.96;;;9.43;88.81
58967;BME280;44744;51.894;5.080;2023-02-17T04:13:01;101907.59;;;9.44;88.81
58967;BME280;44744;51.894;5.080;2023-02-17T04:14:02;101908.11;;;9.44;88.82
58967;BME280;44744;51.894;5.080;2023-02-17T04:15:05;101908.25;;;9.45;88.90
58967;BME280;44744;51.894;5.080;2023-02-17T04:16:08;101911.05;;;9.46;88.93
58967;BME280;44744;51.894;5.080;2023-02-17T04:17:18;101913.52;;;9.46;88.77
58967;BME280;44744;51.894;5.080;2023-02-17T04:18:23;101915.67;;;9.45;88.78
58967;BME280;44744;51.894;5.080;2023-02-17T04:19:34;101915.14;;;9.45;88.80
58967;BME280;44744;51.894;5.080;2023-02-17T04:20:36;101917.61;;;9.45;88.78
58967;BME280;44744;51.894;5.080;2023-02-17T04:21:37;101917.63;;;9.45;88.74
58967;BME280;44744;51.894;5.080;2023-02-17T04:22:40;101917.08;;;9.45;88.89
58967;BME280;44744;51.894;5.080;2023-02-17T04:23:40;101919.71;;;9.46;88.77
58967;BME280;44744;51.894;5.080;2023-02-17T04:24:41;101914.53;;;9.42;88.82
58967;BME280;44744;51.894;5.080;2023-02-17T04:25:44;101914.70;;;9.42;88.80
58967;BME280;44744;51.894;5.080;2023-02-17T04:26:48;101914.73;;;9.41;88.76
58967;BME280;44744;51.894;5.080;2023-02-17T04:27:50;101913.48;;;9.41;88.84
58967;BME280;44744;51.894;5.080;2023-02-17T04:28:51;101915.57;;;9.43;88.88
58967;BME280;44744;51.894;5.080;2023-02-17T04:29:51;101921.41;;;9.42;88.82
58967;BME280;44744;51.894;5.080;2023-02-17T04:30:57;101929.00;;;9.42;88.74
58967;BME280;44744;51.894;5.080;2023-02-17T04:31:58;101931.13;;;9.42;88.81
58967;BME280;44744;51.894;5.080;2023-02-17T04:33:04;101931.29;;;9.42;88.93
58967;BME280;44744;51.894;5.080;2023-02-17T04:34:04;101936.42;;;9.42;88.87
58967;BME280;44744;51.894;5.080;2023-02-17T04:35:06;101929.73;;;9.42;88.88
58967;BME280;44744;51.894;5.080;2023-02-17T04:36:07;101927.59;;;9.42;88.85
58967;BME280;44744;51.894;5.080;2023-02-17T04:37:18;101929.86;;;9.43;88.84
58967;BME280;44744;51.894;5.080;2023-02-17T04:38:22;101923.90;;;9.41;88.85
58967;BME280;44744;51.894;5.080;2023-02-17T04:39:24;101918.83;;;9.40;88.86
58967;BME280;44744;51.894;5.080;2023-02-17T04:40:28;101909.99;;;9.40;88.85
58967;BME280;44744;51.894;5.080;2023-02-17T04:41:28;101905.95;;;9.40;88.88
58967;BME280;44744;51.894;5.080;2023-02-17T04:42:30;101906.45;;;9.41;88.91
58967;BME280;44744;51.894;5.080;2023-02-17T04:43:39;101908.22;;;9.40;88.92
58967;BME280;44744;51.894;5.080;2023-02-17T04:44:40;101910.09;;;9.37;88.94
58967;BME280;44744;51.894;5.080;2023-02-17T04:45:40;101909.73;;;9.37;88.94
58967;BME280;44744;51.894;5.080;2023-02-17T04:46:42;101904.97;;;9.37;89.03
58967;BME280;44744;51.894;5.080;2023-02-17T04:47:46;101897.20;;;9.37;89.00
58967;BME280;44744;51.894;5.080;2023-02-17T04:49:05;101893.35;;;9.36;89.01
58967;BME280;44744;51.894;5.080;2023-02-17T04:50:17;101889.33;;;9.35;89.11
58967;BME280;44744;51.894;5.080;2023-02-17T04:51:17;101891.97;;;9.36;89.17
58967;BME280;44744;51.894;5.080;2023-02-17T04:52:19;101892.86;;;9.35;89.11
58967;BME280;44744;51.894;5.080;2023-02-17T04:53:20;101894.27;;;9.35;89.18
58967;BME280;44744;51.894;5.080;2023-02-17T04:54:23;101897.44;;;9.35;89.22
58967;BME280;44744;51.894;5.080;2023-02-17T04:55:24;101897.83;;;9.35;89.29
58967;BME280;44744;51.894;5.080;2023-02-17T04:56:25;101902.06;;;9.35;89.39
58967;BME280;44744;51.894;5.080;2023-02-17T04:57:26;101898.36;;;9.35;89.39
58967;BME280;44744;51.894;5.080;2023-02-17T04:58:28;101898.73;;;9.34;89.36
58967;BME280;44744;51.894;5.080;2023-02-17T04:59:30;101901.55;;;9.34;89.45
58967;BME280;44744;51.894;5.080;2023-02-17T05:00:38;101896.65;;;9.33;89.48
58967;BME280;44744;51.894;5.080;2023-02-17T05:01:39;101894.34;;;9.33;89.35
58967;BME280;44744;51.894;5.080;2023-02-17T05:02:41;101897.71;;;9.33;89.39
58967;BME280;44744;51.894;5.080;2023-02-17T05:03:45;101894.36;;;9.33;89.39
58967;BME280;44744;51.894;5.080;2023-02-17T05:04:46;101888.34;;;9.33;89.49
58967;BME280;44744;51.894;5.080;2023-02-17T05:05:48;101892.59;;;9.33;89.51
58967;BME280;44744;51.894;5.080;2023-02-17T05:07:12;101892.11;;;9.31;89.50
58967;BME280;44744;51.894;5.080;2023-02-17T05:08:13;101892.87;;;9.30;89.61
58967;BME280;44744;51.894;5.080;2023-02-17T05:09:13;101894.45;;;9.30;89.61
58967;BME280;44744;51.894;5.080;2023-02-17T05:10:16;101893.91;;;9.31;89.60
58967;BME280;44744;51.894;5.080;2023-02-17T05:11:18;101892.81;;;9.31;89.62
58967;BME280;44744;51.894;5.080;2023-02-17T05:12:21;101900.58;;;9.31;89.69
58967;BME280;44744;51.894;5.080;2023-02-17T05:13:27;101904.17;;;9.30;89.64
58967;BME280;44744;51.894;5.080;2023-02-17T05:14:28;101906.84;;;9.29;89.68
58967;BME280;44744;51.894;5.080;2023-02-17T05:15:29;101914.79;;;9.29;89.66
58967;BME280;44744;51.894;5.080;2023-02-17T05:16:33;101913.88;;;9.29;89.79
58967;BME280;44744;51.894;5.080;2023-02-17T05:17:35;101918.28;;;9.30;89.72
58967;BME280;44744;51.894;5.080;2023-02-17T05:18:36;101923.44;;;9.29;89.75
58967;BME280;44744;51.894;5.080;2023-02-17T05:19:37;101923.61;;;9.29;89.77
58967;BME280;44744;51.894;5.080;2023-02-17T05:20:39;101923.44;;;9.29;89.77
58967;BME280;44744;51.894;5.080;2023-02-17T05:21:47;101930.81;;;9.30;89.73
58967;BME280;44744;51.894;5.080;2023-02-17T05:22:48;101926.89;;;9.31;89.82
58967;BME280;44744;51.894;5.080;2023-02-17T05:23:51;101922.47;;;9.31;89.91
58967;BME280;44744;51.894;5.080;2023-02-17T05:24:54;101930.96;;;9.31;89.84
58967;BME280;44744;51.894;5.080;2023-02-17T05:25:58;101931.30;;;9.31;89.91
58967;BME280;44744;51.894;5.080;2023-02-17T05:27:01;101931.69;;;9.30;89.91
58967;BME280;44744;51.894;5.080;2023-02-17T05:28:02;101926.39;;;9.30;89.89
58967;BME280;44744;51.894;5.080;2023-02-17T05:29:04;101921.11;;;9.30;89.94
58967;BME280;44744;51.894;5.080;2023-02-17T05:30:07;101921.98;;;9.30;89.94
58967;BME280;44744;51.894;5.080;2023-02-17T05:31:11;101914.39;;;9.30;89.96
58967;BME280;44744;51.894;5.080;2023-02-17T05:32:17;101912.41;;;9.31;90.01
58967;BME280;44744;51.894;5.080;2023-02-17T05:33:22;101911.70;;;9.31;89.94
58967;BME280;44744;51.894;5.080;2023-02-17T05:34:23;101905.56;;;9.30;89.94
58967;BME280;44744;51.894;5.080;2023-02-17T05:38:50;101917.72;;;9.26;90.37
58967;BME280;44744;51.894;5.080;2023-02-17T05:39:57;101912.09;;;9.25;90.48
58967;BME280;44744;51.894;5.080;2023-02-17T05:41:06;101910.86;;;9.24;90.50
58967;BME280;44744;51.894;5.080;2023-02-17T05:42:11;101904.67;;;9.24;90.57
58967;BME280;44744;51.894;5.080;2023-02-17T05:43:21;101910.89;;;9.24;90.41
58967;BME280;44744;51.894;5.080;2023-02-17T05:44:26;101906.29;;;9.24;90.53
58967;BME280;44744;51.894;5.080;2023-02-17T05:45:27;101904.69;;;9.25;90.68
58967;BME280;44744;51.894;5.080;2023-02-17T05:46:40;101904.32;;;9.25;90.56
58967;BME280;44744;51.894;5.080;2023-02-17T05:47:41;101897.79;;;9.25;90.59
58967;BME280;44744;51.894;5.080;2023-02-17T05:48:42;101898.49;;;9.25;90.75
58967;BME280;44744;51.894;5.080;2023-02-17T05:51:38;101896.42;;;9.23;90.79
58967;BME280;44744;51.894;5.080;2023-02-17T05:52:44;101893.61;;;9.23;90.94
58967;BME280;44744;51.894;5.080;2023-02-17T05:53:47;101888.29;;;9.24;90.98
58967;BME280;44744;51.894;5.080;2023-02-17T05:54:50;101889.00;;;9.23;90.91
58967;BME280;44744;51.894;5.080;2023-02-17T05:55:54;101892.34;;;9.24;90.91
58967;BME280;44744;51.894;5.080;2023-02-17T05:56:57;101889.86;;;9.25;91.00
58967;BME280;44744;51.894;5.080;2023-02-17T05:58:31;101894.77;;;9.26;91.08
58967;BME280;44744;51.894;5.080;2023-02-17T06:00:42;101894.62;;;9.25;91.13
58967;BME280;44744;51.894;5.080;2023-02-17T06:01:42;101890.24;;;9.23;91.32
58967;BME280;44744;51.894;5.080;2023-02-17T06:02:42;101887.05;;;9.23;91.42
58967;BME280;44744;51.894;5.080;2023-02-17T06:03:43;101889.15;;;9.25;91.37
58967;BME280;44744;51.894;5.080;2023-02-17T06:04:49;101885.43;;;9.26;91.43
58967;BME280;44744;51.894;5.080;2023-02-17T06:05:52;101883.46;;;9.26;91.60
58967;BME280;44744;51.894;5.080;2023-02-17T06:07:06;101880.67;;;9.25;91.51
58967;BME280;44744;51.894;5.080;2023-02-17T06:08:08;101884.55;;;9.25;91.65
58967;BME280;44744;51.894;5.080;2023-02-17T06:09:10;101883.14;;;9.25;91.58
58967;BME280;44744;51.894;5.080;2023-02-17T06:10:14;101881.73;;;9.24;91.55
58967;BME280;44744;51.894;5.080;2023-02-17T06:11:25;101882.24;;;9.26;91.57
58967;BME280;44744;51.894;5.080;2023-02-17T06:12:36;101885.05;;;9.26;91.53
58967;BME280;44744;51.894;5.080;2023-02-17T06:14:01;101882.39;;;9.26;91.58
58967;BME280;44744;51.894;5.080;2023-02-17T06:15:08;101878.83;;;9.27;91.59